Time;durP1;ratioP1;P1;durP2;ratioP2;P2;SDS_P1;SDS_P2;PMS_P1;PMS_P2;Temp;Humidity;BMP_temperature;BMP_pressure;BME280_temperature;BME280_humidity;BME280_pressure;Samples;Min_cycle;Max_cycle;Signal;HPM_P1;HPM_P2
2022/10/07 00:00:03;;;;;;;;;;;15.80;99.90;16.10;100599.00;;;;348308;27;91603;-89
2022/10/07 00:00:15;;;;;;;;;;;15.80;99.90;16.10;100603.00;;;;347274;28;82590;-89
2022/10/07 00:00:27;;;;;;;;;;;15.80;99.90;16.10;100600.00;;;;347102;28;89691;-89
2022/10/07 00:00:39;;;;;;;;;;;15.80;99.90;16.10;100604.00;;;;347448;27;82533;-90
2022/10/07 00:00:51;;;;;;;;;;;15.80;99.90;16.10;100598.00;;;;348145;27;91205;-90
2022/10/07 00:01:03;;;;;;;;;;;15.80;99.90;16.20;100599.00;;;;347435;28;82552;-89
2022/10/07 00:01:15;;;;;;;;;;;15.80;99.90;16.20;100598.00;;;;346893;28;92546;-90
2022/10/07 00:01:27;;;;;;;;;;;15.80;99.90;16.20;100599.00;;;;347419;28;83445;-89
2022/10/07 00:01:39;;;;;;;;;;;15.80;99.90;16.00;100602.00;;;;348334;27;89431;-90
2022/10/07 00:01:50;;;;;;;;;;;15.90;99.90;16.00;100594.00;;;;347352;28;82498;-88
2022/10/07 00:02:02;;;;;;;;;;;15.90;99.90;16.00;100601.00;;;;348348;27;88311;-89
2022/10/07 00:02:14;;;;;;;;;;;15.80;99.90;16.00;100593.00;;;;347344;28;82554;-89
2022/10/07 00:02:26;;;;;;;;;;;15.80;99.90;16.00;100593.00;;;;345705;28;88384;-89
2022/10/07 00:02:39;;;;;;;;;;;15.80;99.90;15.90;100602.00;;;;347203;28;83488;-89
2022/10/07 00:02:51;;;;;;;;;;;15.80;99.90;16.00;100597.00;;;;346992;28;89612;-89
2022/10/07 00:03:03;;;;;;;;;;;15.80;99.90;16.10;100599.00;;;;347445;28;83387;-89
2022/10/07 00:03:14;;;;;;;;;;;15.80;99.90;16.20;100604.00;;;;349236;27;92648;-89
2022/10/07 00:03:27;;;;;;;;;;;15.80;99.90;16.20;100599.00;;;;346008;28;82600;-89
2022/10/07 00:03:39;;;;;;;;;;;15.80;99.90;16.00;100601.00;;;;345556;28;89474;-89
2022/10/07 00:03:51;;;;;;;;;;;15.80;99.90;15.90;100600.00;;;;346065;28;83291;-88
2022/10/07 00:04:02;;;;;;;;;;;15.80;99.90;15.90;100601.00;;;;346907;28;89048;-89
2022/10/07 00:04:14;;;;;;;;;;;15.80;99.90;16.00;100595.00;;;;347138;28;83540;-89
2022/10/07 00:04:26;;;;;;;;;;;15.80;99.90;16.00;100606.00;;;;345611;28;89501;-89
2022/10/07 00:04:43;;;;;;;;;;;15.80;99.90;16.00;100606.00;;;;346070;28;83650;-89
2022/10/07 00:04:55;;;;;;;;;;;15.80;99.90;16.10;100596.00;;;;346697;28;90358;-90
2022/10/07 00:05:07;;;;;;;;;;;15.80;99.90;16.10;100605.00;;;;347275;28;82633;-89
2022/10/07 00:05:19;;;;;;;;;;;15.80;99.90;16.10;100601.00;;;;344950;28;92478;-90
2022/10/07 00:05:30;;;;;;;;;;;15.80;99.90;16.00;100606.00;;;;346062;28;82454;-89
2022/10/07 00:05:42;;;;;;;;;;;15.80;99.90;16.00;100595.00;;;;345604;28;88676;-90
2022/10/07 00:06:14;;;;;;;;;;;15.80;99.90;16.00;100598.00;;;;347388;28;82427;-89
2022/10/07 00:06:26;;;;;;;;;;;15.80;99.90;15.90;100604.00;;;;346968;28;89519;-89
2022/10/07 00:06:37;;;;;;;;;;;15.80;99.90;15.80;100600.00;;;;347277;27;83595;-89
2022/10/07 00:06:49;;;;;;;;;;;15.70;99.90;15.80;100611.00;;;;348381;27;89566;-89
2022/10/07 00:07:01;;;;;;;;;;;15.70;99.90;15.80;100602.00;;;;347090;28;84051;-90
2022/10/07 00:07:13;;;;;;;;;;;15.70;99.90;15.70;100598.00;;;;348485;27;89475;-88
2022/10/07 00:07:25;;;;;;;;;;;15.70;99.90;15.70;100600.00;;;;347206;28;83653;-89
2022/10/07 00:07:37;;;;;;;;;;;15.70;99.90;15.90;100605.00;;;;346975;28;90292;-89
2022/10/07 00:07:49;;;;;;;;;;;15.70;99.90;15.90;100598.00;;;;348622;27;82544;-89
2022/10/07 00:08:01;;;;;;;;;;;15.70;99.90;15.80;100604.00;;;;346751;28;90595;-89
2022/10/07 00:08:12;;;;;;;;;;;15.70;99.90;15.70;100602.00;;;;347304;28;82643;-88
2022/10/07 00:08:24;;;;;;;;;;;15.70;99.90;15.80;100594.00;;;;345572;28;89444;-89
2022/10/07 00:08:37;;;;;;;;;;;15.70;99.90;15.70;100597.00;;;;346968;28;83436;-89
2022/10/07 00:08:50;;;;;;;;;;;15.70;99.90;15.70;100603.00;;;;346982;28;88502;-89
2022/10/07 00:09:02;;;;;;;;;;;15.70;99.90;15.70;100589.00;;;;346092;28;83412;-89
2022/10/07 00:09:14;;;;;;;;;;;15.60;99.90;15.90;100604.00;;;;346683;28;91928;-89
2022/10/07 00:09:25;;;;;;;;;;;15.60;99.90;15.90;100592.00;;;;347369;28;83456;-89
2022/10/07 00:09:37;;;;;;;;;;;15.70;99.90;15.80;100593.00;;;;345583;28;91200;-90
2022/10/07 00:09:49;;;;;;;;;;;15.60;99.90;15.80;100596.00;;;;348523;27;83474;-89
2022/10/07 00:10:00;;;;;;;;;;;15.60;99.90;15.70;100602.00;;;;346742;28;90086;-89
2022/10/07 00:10:12;;;;;;;;;;;15.60;99.90;15.80;100604.00;;;;347486;28;83380;-90
2022/10/07 00:10:24;;;;;;;;;;;15.60;99.90;15.90;100600.00;;;;345647;28;89091;-89
2022/10/07 00:10:39;;;;;;;;;;;15.60;99.90;15.90;100598.00;;;;347334;28;83520;-90
2022/10/07 00:10:51;;;;;;;;;;;15.60;99.90;15.80;100598.00;;;;344258;28;87847;-89
2022/10/07 00:11:10;;;;;;;;;;;15.60;99.90;15.80;100598.00;;;;347437;28;82603;-89
2022/10/07 00:11:24;;;;;;;;;;;15.60;99.90;15.70;100599.00;;;;346743;28;89195;-89
2022/10/07 00:11:36;;;;;;;;;;;15.60;99.90;15.80;100596.00;;;;348628;27;83616;-89
2022/10/07 00:11:47;;;;;;;;;;;15.60;99.90;15.90;100602.00;;;;346807;28;92690;-89
2022/10/07 00:11:59;;;;;;;;;;;15.60;99.90;15.90;100607.00;;;;347299;28;83567;-89
2022/10/07 00:12:11;;;;;;;;;;;15.60;99.90;16.00;100598.00;;;;346984;28;90551;-89
2022/10/07 00:12:22;;;;;;;;;;;15.60;99.90;16.00;100604.00;;;;348668;27;82651;-89
2022/10/07 00:12:34;;;;;;;;;;;15.60;99.90;16.00;100607.00;;;;345711;28;88197;-89
2022/10/07 00:12:45;;;;;;;;;;;15.70;99.90;15.90;100598.00;;;;347393;28;82613;-89
2022/10/07 00:12:58;;;;;;;;;;;15.70;99.90;15.90;100599.00;;;;346832;28;92094;-89
2022/10/07 00:13:10;;;;;;;;;;;15.70;99.90;15.90;100593.00;;;;347483;28;82437;-90
2022/10/07 00:13:22;;;;;;;;;;;15.60;99.90;15.90;100594.00;;;;349794;27;91678;-90
2022/10/07 00:13:35;;;;;;;;;;;15.60;99.90;15.90;100594.00;;;;347184;28;83642;-89
2022/10/07 00:13:48;;;;;;;;;;;15.60;99.90;15.90;100599.00;;;;345515;28;90060;-90
2022/10/07 00:14:01;;;;;;;;;;;15.60;99.90;16.00;100597.00;;;;347045;28;83543;-89
2022/10/07 00:14:13;;;;;;;;;;;15.70;99.90;16.00;100611.00;;;;346785;28;91654;-89
2022/10/07 00:14:24;;;;;;;;;;;15.70;99.90;16.00;100605.00;;;;345780;28;82596;-89
2022/10/07 00:14:36;;;;;;;;;;;15.70;99.90;16.10;100602.00;;;;345528;28;90723;-90
2022/10/07 00:14:48;;;;;;;;;;;15.70;99.90;16.00;100604.00;;;;345994;28;83890;-89
2022/10/07 00:14:59;;;;;;;;;;;15.70;99.90;15.90;100599.00;;;;349194;27;91515;-89
2022/10/07 00:15:12;;;;;;;;;;;15.70;99.90;16.00;100601.00;;;;344684;28;83419;-90
2022/10/07 00:15:23;;;;;;;;;;;15.70;99.90;15.90;100602.00;;;;344134;28;88761;-89
2022/10/07 00:15:35;;;;;;;;;;;15.70;99.90;15.90;100603.00;;;;347287;28;83545;-89
2022/10/07 00:15:47;;;;;;;;;;;15.70;99.90;15.90;100606.00;;;;345549;28;90419;-90
2022/10/07 00:16:06;;;;;;;;;;;15.70;99.90;15.90;100600.00;;;;347380;28;83394;-89
2022/10/07 00:16:25;;;;;;;;;;;15.70;99.90;15.90;100606.00;;;;345409;28;91655;-89
2022/10/07 00:16:38;;;;;;;;;;;15.70;99.90;15.90;100607.00;;;;347058;28;83531;-89
2022/10/07 00:16:50;;;;;;;;;;;15.70;99.90;15.90;100605.00;;;;347000;28;89476;-89
2022/10/07 00:17:01;;;;;;;;;;;15.70;99.90;15.90;100605.00;;;;347212;28;83502;-89
2022/10/07 00:17:13;;;;;;;;;;;15.60;99.90;15.80;100599.00;;;;345570;28;88348;-90
2022/10/07 00:17:25;;;;;;;;;;;15.60;99.90;15.90;100600.00;;;;346004;28;82581;-89
2022/10/07 00:17:37;;;;;;;;;;;15.70;99.90;15.90;100597.00;;;;346849;28;90025;-89
2022/10/07 00:17:49;;;;;;;;;;;15.70;99.90;15.90;100600.00;;;;345524;28;83429;-90
2022/10/07 00:18:01;;;;;;;;;;;15.70;99.90;16.00;100606.00;;;;346727;28;90856;-89
2022/10/07 00:18:12;;;;;;;;;;;15.70;99.90;16.10;100606.00;;;;348887;27;82458;-90
2022/10/07 00:18:24;;;;;;;;;;;15.70;99.90;16.10;100600.00;;;;349575;27;90757;-89
2022/10/07 00:18:36;;;;;;;;;;;15.70;99.90;16.00;100608.00;;;;350078;27;82697;-90
2022/10/07 00:18:48;;;;;;;;;;;15.70;99.90;16.00;100606.00;;;;347009;28;89506;-89
2022/10/07 00:19:00;;;;;;;;;;;15.70;99.90;16.10;100605.00;;;;347524;28;83297;-90
2022/10/07 00:19:12;;;;;;;;;;;15.70;99.90;16.00;100606.00;;;;346882;28;91660;-89
2022/10/07 00:19:24;;;;;;;;;;;15.70;99.90;16.00;100607.00;;;;347423;28;82518;-89
2022/10/07 00:19:36;;;;;;;;;;;15.70;99.90;16.00;100603.00;;;;347086;28;89049;-89
2022/10/07 00:19:48;;;;;;;;;;;15.70;99.90;15.90;100597.00;;;;348949;27;83303;-89
2022/10/07 00:19:59;;;;;;;;;;;15.70;99.90;15.90;100595.00;;;;349674;27;88958;-89
2022/10/07 00:20:11;;;;;;;;;;;15.70;99.90;15.90;100604.00;;;;347456;28;82523;-90
2022/10/07 00:20:23;;;;;;;;;;;15.70;99.90;15.90;100606.00;;;;347078;28;89380;-90
2022/10/07 00:20:38;;;;;;;;;;;15.70;99.90;15.90;100599.00;;;;347378;28;82533;-90
2022/10/07 00:20:50;;;;;;;;;;;15.70;99.90;15.90;100600.00;;;;346908;28;90323;-89
2022/10/07 00:21:10;;;;;;;;;;;15.70;99.90;16.00;100613.00;;;;347396;28;83334;-90
2022/10/07 00:21:22;;;;;;;;;;;15.70;99.90;16.10;100610.00;;;;348302;27;88269;-89
2022/10/07 00:21:35;;;;;;;;;;;15.70;99.90;16.10;100606.00;;;;347315;28;83388;-90
2022/10/07 00:21:47;;;;;;;;;;;15.70;99.90;16.10;100605.00;;;;345601;28;87823;-89
2022/10/07 00:21:58;;;;;;;;;;;15.70;99.90;16.10;100609.00;;;;347435;28;83455;-89
2022/10/07 00:22:10;;;;;;;;;;;15.70;99.90;16.00;100603.00;;;;345482;28;90260;-90
2022/10/07 00:22:22;;;;;;;;;;;15.70;99.90;15.90;100602.00;;;;346043;28;83508;-89
2022/10/07 00:22:34;;;;;;;;;;;15.70;99.90;15.90;100606.00;;;;345600;28;89483;-89
2022/10/07 00:22:45;;;;;;;;;;;15.70;99.90;15.90;100602.00;;;;347114;28;82673;-90
2022/10/07 00:22:58;;;;;;;;;;;15.70;99.90;15.90;100606.00;;;;345725;28;87704;-89
2022/10/07 00:23:09;;;;;;;;;;;15.70;99.90;16.00;100606.00;;;;346036;28;82598;-90
2022/10/07 00:23:21;;;;;;;;;;;15.70;99.90;16.00;100611.00;;;;345410;28;90613;-90
2022/10/07 00:23:33;;;;;;;;;;;15.70;99.90;16.00;100608.00;;;;345808;28;82632;-89
2022/10/07 00:23:46;;;;;;;;;;;15.70;99.90;16.00;100598.00;;;;345580;28;88946;-90
2022/10/07 00:23:58;;;;;;;;;;;15.70;99.90;15.90;100599.00;;;;347366;28;82635;-90
2022/10/07 00:24:10;;;;;;;;;;;15.70;99.90;15.90;100599.00;;;;345122;28;90755;-89
2022/10/07 00:24:21;;;;;;;;;;;15.70;99.90;15.90;100600.00;;;;348665;27;82588;-89
2022/10/07 00:24:34;;;;;;;;;;;15.70;99.90;15.90;100603.00;;;;348155;27;91203;-89
2022/10/07 00:24:46;;;;;;;;;;;15.70;99.90;15.90;100611.00;;;;349930;27;82660;-90
2022/10/07 00:24:58;;;;;;;;;;;15.70;99.90;16.00;100603.00;;;;347084;28;88206;-89
2022/10/07 00:25:10;;;;;;;;;;;15.70;99.90;15.90;100599.00;;;;347370;28;83555;-90
2022/10/07 00:25:22;;;;;;;;;;;15.70;99.90;15.90;100591.00;;;;345668;28;86622;-90
2022/10/07 00:25:37;;;;;;;;;;;15.70;99.90;15.90;100601.00;;;;348779;27;82574;-90
2022/10/07 00:25:48;;;;;;;;;;;15.70;99.90;15.90;100608.00;;;;347037;28;88034;-90
2022/10/07 00:26:01;;;;;;;;;;;15.70;99.90;15.80;100604.00;;;;346148;28;83407;-90
2022/10/07 00:26:18;;;;;;;;;;;15.70;99.90;15.80;100605.00;;;;346885;28;91361;-90
2022/10/07 00:26:31;;;;;;;;;;;15.70;99.90;15.80;100602.00;;;;348588;27;83490;-88
2022/10/07 00:26:43;;;;;;;;;;;15.70;99.90;15.80;100594.00;;;;346731;28;89766;-91
2022/10/07 00:26:55;;;;;;;;;;;15.70;99.90;15.80;100603.00;;;;347166;28;82545;-89
2022/10/07 00:27:06;;;;;;;;;;;15.70;99.90;15.80;100608.00;;;;348396;27;88384;-90
2022/10/07 00:27:18;;;;;;;;;;;15.70;99.90;15.80;100596.00;;;;347342;28;82578;-89
2022/10/07 00:27:30;;;;;;;;;;;15.70;99.90;15.80;100608.00;;;;345802;28;87855;-90
2022/10/07 00:27:41;;;;;;;;;;;15.70;99.90;15.80;100598.00;;;;344752;28;83347;-89
2022/10/07 00:27:53;;;;;;;;;;;15.70;99.90;15.90;100602.00;;;;348623;27;88486;-90
2022/10/07 00:28:05;;;;;;;;;;;15.70;99.90;15.90;100589.00;;;;348703;27;83572;-90
2022/10/07 00:28:17;;;;;;;;;;;15.70;99.90;15.90;100596.00;;;;347039;28;88727;-90
2022/10/07 00:28:29;;;;;;;;;;;15.70;99.90;15.90;100598.00;;;;346361;28;83419;-89
2022/10/07 00:28:41;;;;;;;;;;;15.70;99.90;15.90;100595.00;;;;346985;27;89495;-90
2022/10/07 00:28:53;;;;;;;;;;;15.70;99.90;15.90;100601.00;;;;346335;28;82486;-89
2022/10/07 00:29:05;;;;;;;;;;;15.70;99.90;15.90;100597.00;;;;347329;28;89252;-89
2022/10/07 00:29:17;;;;;;;;;;;15.70;99.90;15.90;100600.00;;;;345961;28;83589;-90
2022/10/07 00:29:29;;;;;;;;;;;15.70;99.90;15.90;100595.00;;;;345924;28;87715;-89
2022/10/07 00:29:40;;;;;;;;;;;15.70;99.90;15.90;100597.00;;;;347553;28;82588;-89
2022/10/07 00:29:52;;;;;;;;;;;15.70;99.90;15.80;100595.00;;;;345801;28;88434;-89
2022/10/07 00:30:04;;;;;;;;;;;15.70;99.90;15.80;100602.00;;;;347460;28;83539;-90
2022/10/07 00:30:16;;;;;;;;;;;15.70;99.90;15.80;100596.00;;;;345863;28;92463;-89
2022/10/07 00:30:28;;;;;;;;;;;15.70;99.90;15.80;100602.00;;;;347410;28;82636;-89
2022/10/07 00:30:40;;;;;;;;;;;15.70;99.90;15.80;100597.00;;;;345899;28;86608;-89
2022/10/07 00:30:59;;;;;;;;;;;15.70;99.90;15.80;100601.00;;;;346252;28;82474;-90
2022/10/07 00:31:20;;;;;;;;;;;15.70;99.90;15.90;100603.00;;;;345531;28;91356;-88
2022/10/07 00:31:34;;;;;;;;;;;15.70;99.90;15.90;100596.00;;;;346082;28;82557;-89
2022/10/07 00:31:45;;;;;;;;;;;15.70;99.90;15.90;100598.00;;;;345854;28;89073;-90
2022/10/07 00:31:57;;;;;;;;;;;15.70;99.90;15.90;100602.00;;;;349070;27;82497;-90
2022/10/07 00:32:09;;;;;;;;;;;15.70;99.90;15.90;100597.00;;;;347107;28;89826;-89
2022/10/07 00:32:20;;;;;;;;;;;15.70;99.90;15.90;100594.00;;;;344957;28;83492;-89
2022/10/07 00:32:32;;;;;;;;;;;15.70;99.90;15.90;100591.00;;;;344349;28;90057;-90
2022/10/07 00:32:44;;;;;;;;;;;15.70;99.90;15.90;100592.00;;;;346070;28;82957;-89
2022/10/07 00:32:55;;;;;;;;;;;15.70;99.90;15.90;100594.00;;;;344359;28;87774;-90
2022/10/07 00:33:07;;;;;;;;;;;15.70;99.90;16.00;100592.00;;;;346293;28;82556;-90
2022/10/07 00:33:19;;;;;;;;;;;15.70;99.90;16.00;100595.00;;;;350041;27;87682;-90
2022/10/07 00:33:32;;;;;;;;;;;15.70;99.90;16.00;100593.00;;;;346326;28;83372;-90
2022/10/07 00:33:44;;;;;;;;;;;15.70;99.90;16.00;100591.00;;;;348427;27;90498;-89
2022/10/07 00:33:56;;;;;;;;;;;15.70;99.90;16.00;100599.00;;;;348962;27;82632;-89
2022/10/07 00:34:09;;;;;;;;;;;15.70;99.90;15.90;100599.00;;;;348365;27;91707;-89
2022/10/07 00:34:21;;;;;;;;;;;15.70;99.90;15.90;100594.00;;;;349113;27;83466;-90
2022/10/07 00:34:33;;;;;;;;;;;15.70;99.90;15.90;100597.00;;;;345561;28;91269;-89
2022/10/07 00:34:44;;;;;;;;;;;15.70;99.90;15.90;100597.00;;;;350207;27;82615;-90
2022/10/07 00:34:56;;;;;;;;;;;15.70;99.90;15.90;100604.00;;;;347099;28;91541;-89
2022/10/07 00:35:08;;;;;;;;;;;15.70;99.90;15.90;100596.00;;;;347722;28;83066;-89
2022/10/07 00:35:19;;;;;;;;;;;15.70;99.90;15.90;100598.00;;;;351036;27;91827;-90
2022/10/07 00:35:34;;;;;;;;;;;15.70;99.90;15.90;100599.00;;;;349026;27;82527;-89
2022/10/07 00:35:45;;;;;;;;;;;15.70;99.90;15.80;100600.00;;;;345591;28;90382;-90
2022/10/07 00:35:57;;;;;;;;;;;15.70;99.90;15.80;100599.00;;;;350198;27;84026;-89
2022/10/07 00:36:14;;;;;;;;;;;15.70;99.90;15.80;100586.00;;;;349934;27;90373;-90
2022/10/07 00:36:28;;;;;;;;;;;15.70;99.90;15.90;100605.00;;;;349016;27;83351;-90
2022/10/07 00:36:40;;;;;;;;;;;15.70;99.90;15.90;100601.00;;;;348495;27;90237;-90
2022/10/07 00:36:52;;;;;;;;;;;15.70;99.90;15.90;100596.00;;;;347484;28;83583;-89
2022/10/07 00:37:04;;;;;;;;;;;15.70;99.90;15.90;100602.00;;;;349832;27;90088;-89
2022/10/07 00:37:16;;;;;;;;;;;15.70;99.90;15.90;100597.00;;;;347559;27;83488;-90
2022/10/07 00:37:27;;;;;;;;;;;15.70;99.90;15.90;100596.00;;;;348624;27;88772;-90
2022/10/07 00:37:41;;;;;;;;;;;15.70;99.90;15.90;100599.00;;;;347646;28;83174;-90
2022/10/07 00:37:54;;;;;;;;;;;15.70;99.90;16.00;100594.00;;;;348420;27;89660;-89
2022/10/07 00:38:06;;;;;;;;;;;15.70;99.90;15.90;100605.00;;;;346278;28;82528;-90
2022/10/07 00:38:17;;;;;;;;;;;15.70;99.90;15.90;100601.00;;;;346936;28;90360;-90
2022/10/07 00:38:29;;;;;;;;;;;15.70;99.90;15.90;100598.00;;;;346225;28;83439;-89
2022/10/07 00:38:41;;;;;;;;;;;15.70;99.90;16.00;100599.00;;;;345401;28;92766;-89
2022/10/07 00:38:57;;;;;;;;;;;15.70;99.90;16.00;100597.00;;;;347648;28;82496;-89
2022/10/07 00:39:11;;;;;;;;;;;15.70;99.90;16.00;100606.00;;;;345520;28;90702;-90
2022/10/07 00:39:23;;;;;;;;;;;15.70;99.90;16.00;100601.00;;;;347265;28;83580;-90
2022/10/07 00:39:34;;;;;;;;;;;15.70;99.90;16.00;100608.00;;;;347306;28;88303;-90
2022/10/07 00:39:46;;;;;;;;;;;15.70;99.90;16.00;100609.00;;;;346027;28;83483;-89
2022/10/07 00:39:58;;;;;;;;;;;15.70;99.90;16.00;100601.00;;;;346931;27;91950;-90
2022/10/07 00:40:11;;;;;;;;;;;15.70;99.90;16.00;100606.00;;;;346268;28;83434;-90
2022/10/07 00:40:23;;;;;;;;;;;15.80;99.90;15.90;100600.00;;;;348280;27;90324;-89
2022/10/07 00:40:35;;;;;;;;;;;15.70;99.90;15.90;100602.00;;;;347337;27;82608;-89
2022/10/07 00:40:47;;;;;;;;;;;15.80;99.90;16.00;100602.00;;;;348492;27;90323;-89
2022/10/07 00:40:58;;;;;;;;;;;15.70;99.90;15.90;100594.00;;;;347641;28;82599;-90
2022/10/07 00:41:16;;;;;;;;;;;15.80;99.90;15.90;100593.00;;;;347221;28;90119;-90
2022/10/07 00:41:49;;;;;;;;;;;15.70;99.90;16.00;100611.00;;;;347618;28;83613;-90
2022/10/07 00:42:00;;;;;;;;;;;15.80;99.90;16.00;100606.00;;;;346821;28;88437;-90
2022/10/07 00:42:12;;;;;;;;;;;15.80;99.90;16.00;100606.00;;;;347513;28;82635;-89
2022/10/07 00:42:24;;;;;;;;;;;15.80;99.90;16.00;100598.00;;;;347141;28;89307;-89
2022/10/07 00:42:36;;;;;;;;;;;15.80;99.90;16.00;100599.00;;;;348790;27;82744;-89
2022/10/07 00:42:49;;;;;;;;;;;15.80;99.90;16.00;100603.00;;;;346957;28;91749;-90
2022/10/07 00:43:28;;;;;;;;;;;15.80;99.90;16.00;100601.00;;;;348916;27;82903;-90
2022/10/07 00:43:40;;;;;;;;;;;15.80;99.90;16.00;100607.00;;;;345827;28;88872;-89
2022/10/07 00:43:52;;;;;;;;;;;15.80;99.90;16.00;100599.00;;;;346283;28;82466;-89
2022/10/07 00:44:31;;;;;;;;;;;15.80;99.90;16.10;100604.00;;;;346951;27;91162;-89
2022/10/07 00:44:44;;;;;;;;;;;15.80;99.90;16.20;100606.00;;;;346020;28;82528;-90
2022/10/07 00:44:56;;;;;;;;;;;15.80;99.90;16.30;100604.00;;;;344478;28;87321;-89
2022/10/07 00:45:14;;;;;;;;;;;15.90;99.90;16.20;100598.00;;;;346281;28;83352;-89
2022/10/07 00:45:26;;;;;;;;;;;15.80;99.90;16.20;100596.00;;;;345694;28;89309;-89
2022/10/07 00:45:37;;;;;;;;;;;15.90;99.90;16.10;100603.00;;;;350276;27;82597;-90
2022/10/07 00:45:49;;;;;;;;;;;15.80;99.90;16.00;100604.00;;;;347072;28;91091;-89
2022/10/07 00:46:11;;;;;;;;;;;15.90;99.90;16.10;100599.00;;;;347413;28;82542;-89
2022/10/07 00:46:34;;;;;;;;;;;15.90;99.90;16.10;100602.00;;;;347047;28;90959;-89
2022/10/07 00:46:46;;;;;;;;;;;15.90;99.90;16.00;100604.00;;;;346007;28;82629;-90
2022/10/07 00:47:11;;;;;;;;;;;15.90;99.90;16.00;100608.00;;;;347302;28;89421;-90
2022/10/07 00:47:26;;;;;;;;;;;15.90;99.90;16.00;100601.00;;;;348884;27;83457;-89
2022/10/07 00:47:38;;;;;;;;;;;15.90;99.90;16.00;100601.00;;;;347324;28;87670;-90
2022/10/07 00:47:50;;;;;;;;;;;15.90;99.90;16.10;100597.00;;;;347336;28;83994;-90
2022/10/07 00:48:02;;;;;;;;;;;15.90;99.90;16.20;100602.00;;;;346814;28;89585;-89
2022/10/07 00:48:15;;;;;;;;;;;15.90;99.90;16.30;100598.00;;;;346247;28;83428;-90
2022/10/07 00:48:29;;;;;;;;;;;15.90;99.90;16.30;100590.00;;;;345539;28;91996;-90
2022/10/07 00:48:41;;;;;;;;;;;15.90;99.90;16.20;100599.00;;;;344816;28;83350;-89
2022/10/07 00:48:53;;;;;;;;;;;15.90;99.90;16.20;100590.00;;;;346718;28;89346;-89
2022/10/07 00:49:09;;;;;;;;;;;15.90;99.90;16.20;100591.00;;;;347744;28;83378;-89
2022/10/07 00:49:21;;;;;;;;;;;15.90;99.90;16.10;100599.00;;;;346903;27;92170;-89
2022/10/07 00:49:38;;;;;;;;;;;15.90;99.90;16.10;100604.00;;;;347392;28;82593;-89
2022/10/07 00:50:00;;;;;;;;;;;15.90;99.90;16.10;100590.00;;;;344428;28;87682;-89
2022/10/07 00:50:13;;;;;;;;;;;15.90;99.90;16.10;100600.00;;;;346262;28;83332;-90
2022/10/07 00:50:26;;;;;;;;;;;15.90;99.90;16.10;100598.00;;;;345840;28;89608;-90
2022/10/07 00:50:38;;;;;;;;;;;15.90;99.90;16.00;100597.00;;;;346053;28;82608;-89
2022/10/07 00:50:50;;;;;;;;;;;15.90;99.90;16.00;100599.00;;;;348771;27;90309;-89
2022/10/07 00:51:02;;;;;;;;;;;15.90;99.90;16.00;100600.00;;;;349821;27;82399;-89
2022/10/07 00:51:17;;;;;;;;;;;15.90;99.90;16.00;100600.00;;;;346281;28;91402;-89
2022/10/07 00:51:30;;;;;;;;;;;15.90;99.90;16.00;100588.00;;;;345533;28;82556;-89
2022/10/07 00:51:42;;;;;;;;;;;15.90;99.90;16.10;100600.00;;;;346562;28;89631;-89
2022/10/07 00:51:54;;;;;;;;;;;15.90;99.90;16.10;100596.00;;;;349677;27;82422;-89
2022/10/07 00:52:06;;;;;;;;;;;15.90;99.90;16.10;100599.00;;;;347763;28;91257;-89
2022/10/07 00:52:19;;;;;;;;;;;15.90;99.90;16.10;100593.00;;;;348229;28;82538;-90
2022/10/07 00:52:33;;;;;;;;;;;15.90;99.90;16.10;100582.00;;;;347847;28;91491;-89
2022/10/07 00:52:48;;;;;;;;;;;15.90;99.90;16.10;100593.00;;;;347160;28;83471;-89
2022/10/07 00:53:00;;;;;;;;;;;15.90;99.90;16.10;100593.00;;;;348031;28;91962;-87
2022/10/07 00:53:12;;;;;;;;;;;15.90;99.90;16.10;100594.00;;;;347258;28;82510;-90
2022/10/07 00:53:24;;;;;;;;;;;15.90;99.90;16.10;100596.00;;;;348075;28;89301;-90
2022/10/07 00:53:37;;;;;;;;;;;15.90;99.90;16.20;100593.00;;;;348691;28;82152;-90
2022/10/07 00:53:50;;;;;;;;;;;15.90;99.90;16.20;100594.00;;;;348013;28;92318;-89
2022/10/07 00:54:03;;;;;;;;;;;15.90;99.90;16.10;100597.00;;;;347348;28;82527;-90
2022/10/07 00:54:15;;;;;;;;;;;15.90;99.90;16.10;100592.00;;;;346750;28;90205;-89
2022/10/07 00:54:27;;;;;;;;;;;15.90;99.90;16.20;100598.00;;;;347349;28;82613;-90
2022/10/07 00:54:39;;;;;;;;;;;15.90;99.90;16.10;100592.00;;;;346393;28;88438;-89
2022/10/07 00:54:51;;;;;;;;;;;15.90;99.90;16.20;100591.00;;;;347138;28;82426;-88
2022/10/07 00:55:06;;;;;;;;;;;15.90;99.90;16.10;100597.00;;;;349281;28;87955;-89
2022/10/07 00:55:20;;;;;;;;;;;15.90;99.90;16.10;100593.00;;;;349111;27;82625;-88
2022/10/07 00:55:32;;;;;;;;;;;15.90;99.90;16.00;100583.00;;;;347563;28;87544;-88
2022/10/07 00:55:43;;;;;;;;;;;15.90;99.90;16.00;100591.00;;;;349075;27;82472;-90
2022/10/07 00:55:56;;;;;;;;;;;15.90;99.90;16.00;100596.00;;;;348663;28;90800;-88
2022/10/07 00:56:07;;;;;;;;;;;15.90;99.90;16.00;100594.00;;;;350464;27;82652;-90
2022/10/07 00:56:19;;;;;;;;;;;15.90;99.90;16.00;100596.00;;;;349253;28;88236;-89
2022/10/07 00:56:31;;;;;;;;;;;15.90;99.90;16.00;100587.00;;;;349455;28;82563;-88
2022/10/07 00:56:43;;;;;;;;;;;15.90;99.90;15.90;100582.00;;;;348873;27;87803;-89
2022/10/07 00:56:54;;;;;;;;;;;15.90;99.90;15.90;100588.00;;;;349136;28;82617;-89
2022/10/07 00:57:06;;;;;;;;;;;15.90;99.90;15.90;100578.00;;;;348692;28;86611;-89
2022/10/07 00:57:20;;;;;;;;;;;15.90;99.90;15.90;100582.00;;;;350413;27;83505;-90
2022/10/07 00:57:32;;;;;;;;;;;15.90;99.90;16.00;100596.00;;;;348737;28;91407;-88
2022/10/07 00:57:44;;;;;;;;;;;15.90;99.90;16.00;100590.00;;;;347909;28;82633;-89
2022/10/07 00:57:58;;;;;;;;;;;15.90;99.90;16.00;100590.00;;;;347043;28;87638;-89
2022/10/07 00:58:10;;;;;;;;;;;15.90;99.90;16.10;100588.00;;;;348023;28;82480;-89
2022/10/07 00:58:22;;;;;;;;;;;15.90;99.90;16.10;100592.00;;;;348642;28;90507;-89
2022/10/07 00:58:35;;;;;;;;;;;15.90;99.90;16.10;100582.00;;;;350428;27;82426;-89
2022/10/07 00:58:47;;;;;;;;;;;15.90;99.90;16.10;100591.00;;;;347670;28;91932;-89
2022/10/07 00:58:59;;;;;;;;;;;15.90;99.90;16.10;100579.00;;;;349054;27;82595;-90
2022/10/07 00:59:11;;;;;;;;;;;15.90;99.90;16.10;100588.00;;;;347172;28;91805;-89
2022/10/07 00:59:22;;;;;;;;;;;15.90;99.90;16.20;100589.00;;;;347621;27;83435;-90
2022/10/07 00:59:36;;;;;;;;;;;15.90;99.90;16.20;100581.00;;;;347155;28;88395;-90
2022/10/07 00:59:48;;;;;;;;;;;15.90;99.90;16.10;100587.00;;;;347601;28;83497;-90
2022/10/07 01:00:01;;;;;;;;;;;15.90;99.90;16.10;100580.00;;;;347135;28;88208;-90
2022/10/07 01:00:14;;;;;;;;;;;15.90;99.90;16.10;100587.00;;;;350393;27;82540;-90
2022/10/07 01:00:25;;;;;;;;;;;15.90;99.90;16.00;100583.00;;;;347267;28;89097;-90
2022/10/07 01:00:38;;;;;;;;;;;15.90;99.90;16.10;100583.00;;;;347228;28;82599;-90
2022/10/07 01:00:49;;;;;;;;;;;15.90;99.90;16.20;100588.00;;;;348556;27;88367;-90
2022/10/07 01:01:01;;;;;;;;;;;15.90;99.90;16.30;100577.00;;;;347350;28;83591;-89
2022/10/07 01:01:13;;;;;;;;;;;15.90;99.90;16.30;100589.00;;;;344544;28;88409;-89
2022/10/07 01:01:25;;;;;;;;;;;15.90;99.90;16.20;100579.00;;;;347231;28;83568;-89
2022/10/07 01:01:40;;;;;;;;;;;15.90;99.90;16.10;100575.00;;;;348341;27;91109;-90
2022/10/07 01:01:52;;;;;;;;;;;15.90;99.90;16.10;100583.00;;;;345961;28;83563;-89
2022/10/07 01:02:05;;;;;;;;;;;15.90;99.90;16.10;100572.00;;;;344404;28;89119;-89
2022/10/07 01:02:17;;;;;;;;;;;15.90;99.90;16.10;100578.00;;;;346297;28;83328;-90
2022/10/07 01:02:29;;;;;;;;;;;15.90;99.90;16.20;100577.00;;;;348615;27;87789;-90
2022/10/07 01:02:41;;;;;;;;;;;15.90;99.90;16.20;100576.00;;;;347207;28;83424;-90
2022/10/07 01:02:53;;;;;;;;;;;15.90;99.90;16.20;100582.00;;;;346912;28;91962;-90